This is the latest recevied weather packets stored in our database for station/object K4MGY-13. If no packets are shown the sender has not sent any weather packets the latest 1 day(s).
| Time | Temp. | Humidity | Pressure | Rain* | Wind** | Luminosity | Snow |
|---|---|---|---|---|---|---|---|
| 1778023149 | 21.67° C | 55% | 1007.8 hPa | 0 mm | 1.34 m/s, 201° | - | - |
| 1778022849 | 21.67° C | 56% | 1007.5 hPa | 0 mm | 0.89 m/s, 175° | - | - |
| 1778022549 | 21.67° C | 55% | 1007.8 hPa | 0 mm | 0.89 m/s, 184° | - | - |
| 1778022249 | 21.67° C | 55% | 1007.5 hPa | 0 mm | 0.45 m/s, 174° | - | - |
| 1778021949 | 21.11° C | 57% | 1007.8 hPa | 0.25 mm | 0.89 m/s, 186° | - | - |
| 1778021648 | 21.11° C | 58% | 1007.8 hPa | 0.51 mm | 0.89 m/s, 162° | - | - |
| 1778021349 | 21.11° C | 58% | 1007.8 hPa | 0.51 mm | 0.45 m/s, 160° | - | - |
| 1778021049 | 21.11° C | 59% | 1008.1 hPa | 0.51 mm | 0.45 m/s, 159° | - | - |
| 1778020718 | 20.56° C | 59% | 1008.5 hPa | 0.51 mm | 0.89 m/s, 188° | - | - |
| 1778020388 | 20.56° C | 60% | 1008.5 hPa | 0.51 mm | 0.45 m/s, 193° | - | - |
| 1778020058 | 20.56° C | 60% | 1008.1 hPa | 0.51 mm | 0.45 m/s, 175° | - | - |
| 1778019728 | 20.56° C | 60% | 1008.1 hPa | 0.51 mm | 0.45 m/s, 175° | - | - |
| 1778019399 | 20.56° C | 59% | 1008.1 hPa | 0.51 mm | 0.89 m/s, 187° | - | - |
| 1778019100 | 20.56° C | 59% | 1008.1 hPa | 0.51 mm | 0.89 m/s, 176° | - | - |
| 1778018438 | 21.67° C | 54% | 1008.5 hPa | 0.25 mm | 0.89 m/s, 192° | - | - |
| 1778018108 | 21.67° C | 51% | 1009.5 hPa | 0 mm | 0.89 m/s, 199° | - | - |
| 1778017809 | 22.22° C | 50% | 1009.8 hPa | 0 mm | 1.34 m/s, 266° | - | - |
| 1778017479 | 22.22° C | 49% | 1009.1 hPa | 0 mm | 0.89 m/s, 270° | - | - |
| 1778017149 | 22.22° C | 48% | 1009.1 hPa | 0 mm | 0.89 m/s, 235° | - | - |
| 1778016819 | 22.78° C | 47% | 1008.8 hPa | 0 mm | 0.89 m/s, 203° | - | - |
| 1778016488 | 22.78° C | 46% | 1008.8 hPa | 0 mm | 1.34 m/s, 199° | - | - |
| 1778016189 | 22.78° C | 45% | 1008.5 hPa | 0 mm | 1.34 m/s, 185° | - | - |
| 1778015858 | 23.33° C | 47% | 1008.1 hPa | 0 mm | 2.24 m/s, 222° | - | - |
| 1778015229 | 23.33° C | 48% | 1007.8 hPa | 0 mm | 0.89 m/s, 231° | - | - |
| 1778014900 | 23.89° C | 47% | 1008.1 hPa | 0 mm | 0.45 m/s, 188° | - | - |
* Rain latest hour (hover to see other rain measurements)
** Current wind speed in m/s (hover to see current wind gust speed)